Time;durP1;ratioP1;P1;durP2;ratioP2;P2;SDS_P1;SDS_P2;PMS_P1;PMS_P2;Temp;Humidity;BMP_temperature;BMP_pressure;BME280_temperature;BME280_humidity;BME280_pressure;Samples;Min_cycle;Max_cycle;Signal;HPM_P1;HPM_P2
2024/02/15 00:01:44;;;;;;;4.47;2.72;;;10.60;54.20;;;;;;5076363;28;20174;-68
2024/02/15 00:04:11;;;;;;;4.88;2.72;;;10.60;54.30;;;;;;5076494;28;20189;-69
2024/02/15 00:06:39;;;;;;;7.60;2.95;;;10.60;54.80;;;;;;5075718;28;20186;-69
2024/02/15 00:09:06;;;;;;;4.88;3.40;;;10.50;54.20;;;;;;5076354;28;20193;-69
2024/02/15 00:11:33;;;;;;;14.88;3.13;;;10.50;54.40;;;;;;5076061;28;20222;-69
2024/02/15 00:14:01;;;;;;;6.95;3.22;;;10.50;54.60;;;;;;5076255;28;20253;-69
2024/02/15 00:16:27;;;;;;;5.05;2.78;;;10.50;54.70;;;;;;5075982;28;20229;-69
2024/02/15 00:18:55;;;;;;;4.22;2.65;;;10.50;54.80;;;;;;5075538;28;20229;-69
2024/02/15 00:21:22;;;;;;;5.57;2.55;;;10.50;54.60;;;;;;5074994;28;20217;-69
2024/02/15 00:23:51;;;;;;;4.78;2.58;;;10.50;54.70;;;;;;5076176;28;20194;-69
2024/02/15 00:26:17;;;;;;;4.45;2.75;;;10.50;54.80;;;;;;5075767;28;20695;-69
2024/02/15 00:28:45;;;;;;;4.20;2.72;;;10.40;54.70;;;;;;5076057;28;20228;-69
2024/02/15 00:31:12;;;;;;;4.35;2.65;;;10.40;54.60;;;;;;5075569;28;20284;-69
2024/02/15 00:33:39;;;;;;;4.40;2.80;;;10.40;54.50;;;;;;5075618;28;20281;-69
2024/02/15 00:36:07;;;;;;;4.10;2.50;;;10.30;54.50;;;;;;5075614;28;20213;-69
2024/02/15 00:38:35;;;;;;;4.20;2.70;;;10.30;54.60;;;;;;5075801;28;20683;-69
2024/02/15 00:41:03;;;;;;;4.28;2.85;;;10.30;54.40;;;;;;5075409;28;20257;-69
2024/02/15 00:43:30;;;;;;;5.47;2.90;;;10.30;54.50;;;;;;5075663;28;20220;-69
2024/02/15 00:45:58;;;;;;;6.00;2.90;;;10.20;54.60;;;;;;5075406;28;20194;-68
2024/02/15 00:48:28;;;;;;;7.03;3.45;;;10.20;54.70;;;;;;5075274;28;20268;-69
2024/02/15 00:50:55;;;;;;;6.15;4.75;;;10.00;55.00;;;;;;5075249;28;20269;-69
2024/02/15 00:53:22;;;;;;;6.40;3.75;;;10.10;55.00;;;;;;5075283;28;20194;-69
2024/02/15 00:55:50;;;;;;;6.25;3.85;;;10.10;55.30;;;;;;5075501;28;20205;-69
2024/02/15 00:58:18;;;;;;;6.05;3.60;;;10.00;55.50;;;;;;5075527;28;20282;-69
2024/02/15 01:00:45;;;;;;;4.97;3.15;;;10.00;55.80;;;;;;5074975;28;20296;-69
2024/02/15 01:03:17;;;;;;;4.53;2.92;;;10.00;55.80;;;;;;5074677;28;20190;-69
2024/02/15 01:05:44;;;;;;;4.20;2.53;;;10.00;55.80;;;;;;5075288;28;20178;-69
2024/02/15 01:08:11;;;;;;;4.72;2.80;;;10.00;56.10;;;;;;5075344;28;20186;-69
2024/02/15 01:10:38;;;;;;;6.10;3.85;;;9.90;57.20;;;;;;5075174;28;20288;-69
2024/02/15 01:13:06;;;;;;;5.72;3.58;;;9.90;57.20;;;;;;5075382;28;20189;-69
2024/02/15 01:15:34;;;;;;;7.57;3.85;;;9.90;57.20;;;;;;5074930;28;20245;-69
2024/02/15 01:18:01;;;;;;;7.20;3.25;;;9.80;57.50;;;;;;5074754;28;20282;-69
2024/02/15 01:20:28;;;;;;;6.60;3.70;;;9.90;57.70;;;;;;5074908;28;20272;-69
2024/02/15 01:22:55;;;;;;;7.90;3.80;;;9.90;57.50;;;;;;5074648;28;20190;-69
2024/02/15 01:25:22;;;;;;;6.40;3.65;;;9.90;57.80;;;;;;5074562;28;20225;-69
2024/02/15 01:27:49;;;;;;;4.35;3.22;;;9.80;57.70;;;;;;5074533;28;20653;-69
2024/02/15 01:30:17;;;;;;;5.95;3.28;;;9.80;57.80;;;;;;5074163;28;20233;-69
2024/02/15 01:32:45;;;;;;;4.00;2.75;;;9.80;58.00;;;;;;5073820;28;20221;-69
2024/02/15 01:35:12;;;;;;;6.47;3.53;;;9.80;58.10;;;;;;5074723;28;20263;-69
2024/02/15 01:37:39;;;;;;;5.65;3.00;;;9.80;58.10;;;;;;5074356;28;20197;-69
2024/02/15 01:40:07;;;;;;;6.60;2.97;;;9.80;58.10;;;;;;5074621;28;20304;-67
2024/02/15 01:42:36;;;;;;;5.35;3.00;;;9.80;58.20;;;;;;5074059;28;20225;-67
2024/02/15 01:45:04;;;;;;;4.75;2.50;;;9.80;58.40;;;;;;5073983;28;20193;-67
2024/02/15 01:47:32;;;;;;;5.32;3.03;;;9.70;58.70;;;;;;5074542;28;20201;-67
2024/02/15 01:50:01;;;;;;;4.38;2.70;;;9.60;58.90;;;;;;5074434;28;20679;-67
2024/02/15 01:52:28;;;;;;;5.47;2.42;;;9.60;59.00;;;;;;5074292;28;20234;-70
2024/02/15 01:54:55;;;;;;;4.00;2.65;;;9.60;59.30;;;;;;5074010;28;20662;-69
2024/02/15 01:57:22;;;;;;;4.55;2.15;;;9.60;59.30;;;;;;5074355;28;20190;-69
2024/02/15 01:59:52;;;;;;;4.60;3.00;;;9.70;58.90;;;;;;5073862;28;20248;-69
2024/02/15 02:02:21;;;;;;;6.72;2.85;;;9.70;58.80;;;;;;5073932;28;20745;-69
2024/02/15 02:04:49;;;;;;;4.55;2.20;;;9.60;59.20;;;;;;5074036;28;20657;-69
2024/02/15 02:07:17;;;;;;;3.90;2.30;;;9.60;59.40;;;;;;5073768;28;20178;-69
2024/02/15 02:09:45;;;;;;;3.13;1.90;;;9.60;59.60;;;;;;5073699;28;20228;-69
2024/02/15 02:12:12;;;;;;;4.53;2.25;;;9.60;59.60;;;;;;5073695;28;20239;-69
2024/02/15 02:14:39;;;;;;;3.40;1.90;;;9.60;59.50;;;;;;5073633;28;20186;-69
2024/02/15 02:17:13;;;;;;;3.30;1.92;;;9.60;59.60;;;;;;5074017;28;20585;-69
2024/02/15 02:19:40;;;;;;;2.70;1.45;;;9.60;59.70;;;;;;5073532;28;20671;-69
2024/02/15 02:22:11;;;;;;;3.28;1.98;;;9.60;59.90;;;;;;5073585;28;20186;-69
2024/02/15 02:24:46;;;;;;;3.78;2.13;;;9.60;60.00;;;;;;5074162;28;20276;-69
2024/02/15 02:27:16;;;;;;;3.20;1.73;;;9.60;59.90;;;;;;5084784;28;20611;-69
2024/02/15 02:29:46;;;;;;;2.80;1.55;;;9.70;59.80;;;;;;5073839;28;20619;-69
2024/02/15 02:32:13;;;;;;;6.05;2.35;;;9.70;59.70;;;;;;5073340;28;20214;-69
2024/02/15 02:34:40;;;;;;;3.65;2.22;;;9.70;59.50;;;;;;5073332;28;20190;-69
2024/02/15 02:37:08;;;;;;;3.20;1.95;;;9.70;59.40;;;;;;5073724;28;20190;-68
2024/02/15 02:39:35;;;;;;;3.15;1.98;;;9.80;59.90;;;;;;5073428;28;20195;-69
2024/02/15 02:42:03;;;;;;;5.00;2.25;;;9.80;59.50;;;;;;5072838;28;20262;-69
2024/02/15 02:44:31;;;;;;;3.00;1.70;;;9.80;59.30;;;;;;5073035;28;20656;-69
2024/02/15 02:46:58;;;;;;;3.65;2.03;;;9.80;59.20;;;;;;5073685;28;20225;-69
2024/02/15 02:49:25;;;;;;;4.95;2.85;;;9.80;59.20;;;;;;5073635;28;20272;-69
2024/02/15 02:51:52;;;;;;;4.68;2.78;;;9.80;59.10;;;;;;5073146;28;20265;-68
2024/02/15 02:54:19;;;;;;;4.35;2.85;;;9.70;59.50;;;;;;5073134;28;20225;-69
2024/02/15 02:56:46;;;;;;;3.15;2.15;;;9.60;59.60;;;;;;5073507;28;20281;-69
2024/02/15 02:59:13;;;;;;;3.85;2.35;;;9.60;59.70;;;;;;5073224;28;20268;-69
2024/02/15 03:01:42;;;;;;;4.47;2.35;;;9.50;59.80;;;;;;5072742;28;20210;-69
2024/02/15 03:04:12;;;;;;;3.45;2.35;;;9.50;59.80;;;;;;5073422;28;20201;-69
2024/02/15 03:06:42;;;;;;;3.67;2.30;;;9.50;59.70;;;;;;5073202;28;20285;-69
2024/02/15 03:09:09;;;;;;;6.85;2.45;;;9.50;59.50;;;;;;5073461;28;20252;-69
2024/02/15 03:11:36;;;;;;;3.80;2.20;;;9.50;59.40;;;;;;5073432;28;20225;-69
2024/02/15 03:14:04;;;;;;;4.45;2.65;;;9.50;59.50;;;;;;5073082;28;20272;-69
2024/02/15 03:16:31;;;;;;;4.05;2.35;;;9.40;59.80;;;;;;5073044;28;20276;-69
2024/02/15 03:19:02;;;;;;;4.65;2.88;;;9.40;60.00;;;;;;5073458;28;20218;-69
2024/02/15 03:21:29;;;;;;;4.18;2.40;;;9.40;60.00;;;;;;5072953;28;20668;-69
2024/02/15 03:23:56;;;;;;;5.20;3.20;;;9.40;60.10;;;;;;5072904;28;20190;-69
2024/02/15 03:26:36;;;;;;;4.53;2.60;;;9.30;60.60;;;;;;5072997;28;20191;-69
2024/02/15 03:29:03;;;;;;;5.10;3.78;;;9.20;60.60;;;;;;5073126;28;20178;-69
2024/02/15 03:31:30;;;;;;;5.90;2.95;;;9.20;60.20;;;;;;5073186;28;20195;-69
2024/02/15 03:34:00;;;;;;;4.00;3.15;;;9.20;60.70;;;;;;5073362;28;20194;-69
2024/02/15 03:36:29;;;;;;;6.75;3.10;;;9.10;60.30;;;;;;5073194;28;20225;-69
2024/02/15 03:38:56;;;;;;;3.50;2.10;;;9.10;60.50;;;;;;5073114;28;20190;-69
2024/02/15 03:41:23;;;;;;;4.00;2.60;;;9.00;60.70;;;;;;5072769;28;20351;-69
2024/02/15 03:43:50;;;;;;;2.92;1.88;;;9.00;60.80;;;;;;5072642;28;20221;-69
2024/02/15 03:46:17;;;;;;;3.83;2.00;;;9.00;61.00;;;;;;5073039;28;20202;-69
2024/02/15 03:48:45;;;;;;;3.17;2.20;;;8.90;60.90;;;;;;5073110;28;20195;-69
2024/02/15 03:51:18;;;;;;;4.20;2.20;;;8.90;60.60;;;;;;5073089;28;20284;-69
2024/02/15 03:53:45;;;;;;;4.30;2.40;;;8.90;60.40;;;;;;5073044;28;20201;-69
2024/02/15 03:56:12;;;;;;;3.85;2.40;;;8.90;60.50;;;;;;5073348;28;20213;-68
2024/02/15 03:58:39;;;;;;;5.43;2.85;;;8.80;60.70;;;;;;5076573;28;20277;-69
2024/02/15 04:01:09;;;;;;;4.30;2.30;;;8.80;61.30;;;;;;5076448;28;20303;-69
2024/02/15 04:03:37;;;;;;;8.98;3.28;;;8.70;61.60;;;;;;5076396;28;20226;-69
2024/02/15 04:06:04;;;;;;;3.35;2.30;;;8.70;61.60;;;;;;5075928;28;20243;-69
2024/02/15 04:08:33;;;;;;;3.50;2.55;;;8.70;61.30;;;;;;5076005;28;20239;-68
2024/02/15 04:11:00;;;;;;;3.90;2.83;;;8.60;61.30;;;;;;5075719;28;20186;-69
2024/02/15 04:13:27;;;;;;;4.65;2.72;;;8.60;61.40;;;;;;5076039;28;20228;-69
2024/02/15 04:15:54;;;;;;;5.07;3.60;;;8.60;61.70;;;;;;5075894;28;20195;-69
2024/02/15 04:18:22;;;;;;;4.60;3.20;;;8.60;61.40;;;;;;5075887;28;20281;-69
2024/02/15 04:20:49;;;;;;;4.40;3.15;;;8.50;61.40;;;;;;5075895;28;20359;-69
2024/02/15 04:23:16;;;;;;;4.30;2.97;;;8.40;61.60;;;;;;5075850;28;20233;-69
2024/02/15 04:25:50;;;;;;;4.25;2.53;;;8.30;61.50;;;;;;5075368;28;20187;-69
2024/02/15 04:28:17;;;;;;;4.05;2.90;;;8.30;61.60;;;;;;5076058;28;20182;-68
2024/02/15 04:30:46;;;;;;;5.38;3.03;;;8.20;61.50;;;;;;5075631;28;20236;-69
2024/02/15 04:33:15;;;;;;;3.67;2.35;;;8.20;61.40;;;;;;5075559;28;20236;-69
2024/02/15 04:35:42;;;;;;;4.55;2.42;;;8.10;61.30;;;;;;5075600;28;20194;-68
2024/02/15 04:38:09;;;;;;;5.70;2.80;;;8.10;61.80;;;;;;5075224;28;20244;-69
2024/02/15 04:40:38;;;;;;;4.30;2.85;;;8.00;61.80;;;;;;5075289;28;20196;-69
2024/02/15 04:43:06;;;;;;;3.47;2.20;;;8.00;61.40;;;;;;5075263;28;20222;-69
2024/02/15 04:45:33;;;;;;;4.05;2.65;;;7.90;61.30;;;;;;5075383;28;20222;-69
2024/02/15 04:48:02;;;;;;;3.40;2.30;;;7.90;61.90;;;;;;5075332;28;20229;-69
2024/02/15 04:50:30;;;;;;;3.75;2.45;;;7.80;61.70;;;;;;5075567;28;20186;-69
2024/02/15 04:52:57;;;;;;;4.78;2.63;;;7.80;61.40;;;;;;5074972;28;20637;-69
2024/02/15 04:55:26;;;;;;;4.30;2.63;;;7.70;60.80;;;;;;5075242;28;20701;-69
2024/02/15 04:57:54;;;;;;;4.50;2.72;;;7.70;60.80;;;;;;5075478;28;20560;-68
2024/02/15 05:00:26;;;;;;;4.57;2.38;;;7.70;61.10;;;;;;5075474;28;20193;-69
2024/02/15 05:02:53;;;;;;;4.07;2.50;;;7.60;60.80;;;;;;5075351;28;20297;-69
2024/02/15 05:05:21;;;;;;;3.03;2.08;;;7.60;60.60;;;;;;5075071;28;20198;-69
2024/02/15 05:07:50;;;;;;;3.80;2.60;;;7.50;60.40;;;;;;5075000;28;20178;-69
2024/02/15 05:10:17;;;;;;;2.53;1.63;;;7.50;60.60;;;;;;5075224;28;20519;-69
2024/02/15 05:12:44;;;;;;;3.42;2.10;;;7.40;60.40;;;;;;5075421;28;20194;-69
2024/02/15 05:15:11;;;;;;;4.15;2.17;;;7.40;60.30;;;;;;5074782;28;20202;-69
2024/02/15 05:17:41;;;;;;;4.97;2.58;;;7.30;60.30;;;;;;5075120;28;20315;-68
2024/02/15 05:20:13;;;;;;;3.78;2.67;;;7.10;60.60;;;;;;5075031;28;20212;-69
2024/02/15 05:22:43;;;;;;;4.90;2.50;;;7.10;61.00;;;;;;5074382;28;20671;-69
2024/02/15 05:25:12;;;;;;;3.65;2.47;;;7.10;61.40;;;;;;5075093;28;20183;-69
2024/02/15 05:27:39;;;;;;;2.92;2.00;;;7.00;61.40;;;;;;5074855;28;20281;-69
2024/02/15 05:30:08;;;;;;;4.05;2.25;;;7.00;61.10;;;;;;5074463;28;20276;-69
2024/02/15 05:32:41;;;;;;;3.70;2.10;;;6.90;61.10;;;;;;5074402;28;20194;-69
2024/02/15 05:35:10;;;;;;;3.80;2.50;;;6.90;61.70;;;;;;5074583;28;20181;-69
2024/02/15 05:37:37;;;;;;;7.60;2.60;;;6.80;60.90;;;;;;5073967;28;20226;-69
2024/02/15 05:40:04;;;;;;;3.97;2.60;;;6.70;60.80;;;;;;5074152;28;20240;-69
2024/02/15 05:42:31;;;;;;;4.32;2.50;;;6.70;61.50;;;;;;5074155;28;20315;-69
2024/02/15 05:45:29;;;;;;;4.00;2.30;;;6.60;61.90;;;;;;5074735;28;20277;-69
2024/02/15 05:47:56;;;;;;;5.47;2.63;;;6.60;61.80;;;;;;5074239;28;20181;-68
2024/02/15 05:50:27;;;;;;;6.00;2.80;;;6.50;61.50;;;;;;5073844;28;20218;-69
2024/02/15 05:52:54;;;;;;;4.50;2.60;;;6.50;61.50;;;;;;5074392;28;20186;-68
2024/02/15 05:55:22;;;;;;;4.70;2.10;;;6.50;61.60;;;;;;5074008;28;20194;-68
2024/02/15 05:57:49;;;;;;;3.78;2.33;;;6.40;62.40;;;;;;5074383;28;20190;-69
2024/02/15 06:00:18;;;;;;;4.60;2.40;;;6.40;62.70;;;;;;5073942;28;20675;-68
2024/02/15 06:02:46;;;;;;;4.15;1.80;;;6.40;62.80;;;;;;5074204;28;20213;-69
2024/02/15 06:05:16;;;;;;;4.25;2.45;;;6.40;63.00;;;;;;5073677;28;20599;-68
2024/02/15 06:07:45;;;;;;;3.80;2.13;;;6.50;63.80;;;;;;5074111;28;20285;-68
2024/02/15 06:10:13;;;;;;;3.67;2.30;;;6.50;64.00;;;;;;5073729;28;20198;-69
2024/02/15 06:12:40;;;;;;;4.40;2.90;;;6.50;64.00;;;;;;5074212;28;20557;-69
2024/02/15 06:15:14;;;;;;;3.55;2.53;;;6.50;63.90;;;;;;5071882;28;20192;-69
2024/02/15 06:17:43;;;;;;;4.93;2.85;;;6.40;64.50;;;;;;5072637;28;20573;-69
2024/02/15 06:20:14;;;;;;;4.75;2.55;;;6.40;64.00;;;;;;5072111;28;20201;-68
2024/02/15 06:22:41;;;;;;;4.40;2.70;;;6.40;63.80;;;;;;5072741;28;20212;-68
2024/02/15 06:25:11;;;;;;;4.85;2.03;;;6.30;64.10;;;;;;5072294;28;20187;-69
2024/02/15 06:27:40;;;;;;;2.65;1.90;;;6.30;64.50;;;;;;5072281;28;20186;-69
2024/02/15 06:41:07;;;;;;;5.03;2.90;;;6.30;65.40;;;;;;5072230;28;20662;-69
2024/02/15 06:43:34;;;;;;;5.13;3.45;;;6.40;65.10;;;;;;5072265;28;20187;-69
2024/02/15 06:46:01;;;;;;;6.35;3.20;;;6.50;65.00;;;;;;5072490;28;20196;-68
2024/02/15 06:48:29;;;;;;;4.47;3.05;;;6.50;65.20;;;;;;5072763;28;20549;-69
2024/02/15 06:50:56;;;;;;;6.13;3.20;;;6.50;65.10;;;;;;5072662;28;20202;-69
2024/02/15 06:53:24;;;;;;;6.90;4.18;;;6.60;65.00;;;;;;5072417;28;20190;-69
2024/02/15 06:55:51;;;;;;;6.40;3.80;;;6.60;64.60;;;;;;5072086;28;20273;-69
2024/02/15 06:58:20;;;;;;;4.93;4.07;;;6.70;64.30;;;;;;5072244;28;20209;-69
2024/02/15 07:00:50;;;;;;;7.68;4.22;;;6.70;63.80;;;;;;5072332;28;20190;-69
2024/02/15 07:03:17;;;;;;;4.15;3.60;;;6.80;63.30;;;;;;5071318;28;20206;-69
2024/02/15 07:05:45;;;;;;;21.85;11.07;;;6.90;63.50;;;;;;5072200;28;20236;-69
2024/02/15 07:08:14;;;;;;;34.13;17.70;;;7.00;62.80;;;;;;5069205;28;20659;-69
2024/02/15 07:10:46;;;;;;;25.33;12.55;;;7.10;62.00;;;;;;5072133;28;20194;-69
2024/02/15 07:13:16;;;;;;;20.42;10.23;;;7.20;61.30;;;;;;5071803;28;20269;-69
2024/02/15 07:15:45;;;;;;;8.00;5.03;;;7.30;60.90;;;;;;5071589;28;20560;-69
2024/02/15 07:18:16;;;;;;;9.15;5.40;;;7.30;60.10;;;;;;5071545;28;20273;-69
2024/02/15 07:20:46;;;;;;;8.20;4.53;;;7.30;60.20;;;;;;5072071;28;20220;-69
2024/02/15 07:23:19;;;;;;;10.25;5.38;;;7.40;60.80;;;;;;5071823;28;20294;-69
2024/02/15 07:25:48;;;;;;;7.43;5.00;;;7.50;60.90;;;;;;5071586;28;20244;-69
2024/02/15 07:28:15;;;;;;;7.63;5.13;;;7.70;60.50;;;;;;5071580;28;20190;-69
2024/02/15 07:30:44;;;;;;;8.10;4.90;;;8.00;59.60;;;;;;5071231;28;20194;-69
2024/02/15 07:33:14;;;;;;;5.30;3.70;;;8.10;59.50;;;;;;5075572;28;20185;-69
2024/02/15 07:35:51;;;;;;;8.20;4.63;;;8.20;59.70;;;;;;5074600;28;20187;-69
2024/02/15 07:38:18;;;;;;;7.53;4.82;;;8.50;59.90;;;;;;5075558;28;20272;-69
2024/02/15 07:40:47;;;;;;;4.72;3.40;;;8.80;59.00;;;;;;5076597;28;20595;-69
2024/02/15 07:43:21;;;;;;;4.15;3.10;;;9.10;58.40;;;;;;5076626;28;20313;-69
2024/02/15 07:45:50;;;;;;;4.53;3.13;;;9.30;58.60;;;;;;5076003;28;20243;-69
2024/02/15 07:48:22;;;;;;;4.75;3.10;;;9.60;58.40;;;;;;5076674;28;20201;-69
2024/02/15 07:50:49;;;;;;;7.40;3.88;;;9.80;58.40;;;;;;5076279;28;20598;-69
2024/02/15 07:53:16;;;;;;;5.20;3.90;;;10.10;57.00;;;;;;5076395;28;20194;-69
2024/02/15 07:55:50;;;;;;;7.13;5.28;;;10.50;57.00;;;;;;5076113;28;20185;-69
2024/02/15 07:58:19;;;;;;;6.80;5.15;;;10.90;55.70;;;;;;5076340;28;20178;-69
2024/02/15 08:00:46;;;;;;;9.18;5.60;;;11.20;55.00;;;;;;5075893;28;20193;-69
2024/02/15 08:03:15;;;;;;;10.15;5.03;;;11.60;54.50;;;;;;5075830;28;20304;-69
2024/02/15 08:05:42;;;;;;;6.05;5.03;;;12.00;53.80;;;;;;5076223;28;20604;-69
2024/02/15 08:08:09;;;;;;;7.40;4.75;;;12.40;54.10;;;;;;5075772;28;20190;-69
2024/02/15 08:10:45;;;;;;;7.73;4.00;;;12.80;52.70;;;;;;5075816;28;20682;-69
2024/02/15 08:13:15;;;;;;;5.57;4.47;;;13.30;52.10;;;;;;5076131;28;20511;-69
2024/02/15 08:15:43;;;;;;;5.73;4.27;;;13.70;51.70;;;;;;5076031;28;20463;-69
2024/02/15 08:18:12;;;;;;;8.27;3.83;;;14.10;49.90;;;;;;5075903;28;20436;-70
2024/02/15 08:20:44;;;;;;;5.20;3.60;;;14.50;49.60;;;;;;5075868;28;20440;-69
2024/02/15 08:23:13;;;;;;;5.60;3.90;;;14.90;49.10;;;;;;5075861;28;20927;-69
2024/02/15 08:25:41;;;;;;;4.27;3.03;;;15.30;48.10;;;;;;5075874;28;20837;-68
2024/02/15 08:28:08;;;;;;;4.90;2.57;;;15.70;46.50;;;;;;5075786;28;20432;-68
2024/02/15 08:30:37;;;;;;;3.57;2.77;;;16.10;45.90;;;;;;5075491;28;20442;-68
2024/02/15 08:33:05;;;;;;;6.47;2.50;;;16.50;44.50;;;;;;5075677;28;20440;-67
2024/02/15 08:35:36;;;;;;;8.00;2.63;;;16.90;43.80;;;;;;5075721;28;20468;-68
2024/02/15 08:38:05;;;;;;;3.80;2.00;;;17.30;42.90;;;;;;5075606;28;20416;-68
2024/02/15 08:40:32;;;;;;;4.33;2.80;;;17.60;41.60;;;;;;5075595;28;20447;-68
2024/02/15 08:42:59;;;;;;;3.10;2.10;;;17.90;41.40;;;;;;5075023;28;20484;-69
2024/02/15 08:45:27;;;;;;;3.83;1.90;;;18.40;40.00;;;;;;5074285;28;20458;-69
2024/02/15 08:47:58;;;;;;;6.03;3.60;;;18.60;38.00;;;;;;5075078;28;20431;-69
2024/02/15 08:50:25;;;;;;;5.63;3.10;;;19.00;39.00;;;;;;5075535;28;20443;-69
2024/02/15 08:52:55;;;;;;;6.80;3.37;;;19.30;39.40;;;;;;5075097;28;20589;-69
2024/02/15 08:55:26;;;;;;;4.33;2.63;;;19.40;36.90;;;;;;5075299;28;20789;-69
2024/02/15 08:57:54;;;;;;;4.60;2.33;;;19.40;36.50;;;;;;5075037;28;20690;-68
2024/02/15 09:00:21;;;;;;;3.40;1.80;;;19.30;35.10;;;;;;5074470;28;20427;-68
2024/02/15 09:02:49;;;;;;;3.33;1.75;;;19.30;36.30;;;;;;5074228;28;20540;-68
2024/02/15 09:05:17;;;;;;;3.63;2.27;;;19.50;36.90;;;;;;5075125;28;20284;-68
2024/02/15 09:07:47;;;;;;;4.73;2.60;;;19.60;36.00;;;;;;5072865;28;20486;-68
2024/02/15 09:10:16;;;;;;;3.70;1.80;;;19.90;36.30;;;;;;5074749;28;20917;-69
2024/02/15 09:12:47;;;;;;;3.43;1.40;;;20.10;35.70;;;;;;5074612;28;20443;-68
2024/02/15 09:15:15;;;;;;;3.47;1.60;;;20.50;35.30;;;;;;5074634;28;20936;-69
2024/02/15 09:17:43;;;;;;;2.70;1.70;;;21.00;34.80;;;;;;5074888;28;20789;-69
2024/02/15 09:20:14;;;;;;;4.93;1.80;;;21.50;33.80;;;;;;5074720;28;20436;-69
2024/02/15 09:22:41;;;;;;;3.53;1.53;;;22.00;32.80;;;;;;5074897;28;20832;-69
2024/02/15 09:25:10;;;;;;;2.67;1.43;;;22.40;31.30;;;;;;5074349;28;20859;-69
2024/02/15 09:27:37;;;;;;;3.33;1.80;;;22.80;30.00;;;;;;5074464;28;20442;-69
2024/02/15 09:30:09;;;;;;;4.70;1.60;;;23.20;30.80;;;;;;5074597;28;20440;-69
2024/02/15 09:32:36;;;;;;;2.90;1.40;;;23.60;31.10;;;;;;5074513;28;20473;-69
2024/02/15 09:35:03;;;;;;;3.50;1.70;;;24.10;31.30;;;;;;5074128;28;20514;-69
2024/02/15 09:37:30;;;;;;;3.20;1.70;;;24.70;31.00;;;;;;5074035;28;20794;-69
2024/02/15 09:39:58;;;;;;;5.90;1.40;;;25.10;29.90;;;;;;5074372;28;20454;-69
2024/02/15 09:42:25;;;;;;;2.83;1.20;;;25.40;28.90;;;;;;5073756;28;20476;-69
2024/02/15 09:44:52;;;;;;;3.13;1.63;;;25.70;28.30;;;;;;5073975;28;20527;-69
2024/02/15 09:47:23;;;;;;;4.17;2.17;;;26.00;28.30;;;;;;5074087;28;20519;-69
2024/02/15 09:49:50;;;;;;;3.00;1.70;;;26.20;27.60;;;;;;5074328;28;20428;-69
2024/02/15 09:52:18;;;;;;;4.30;1.97;;;26.40;27.50;;;;;;5073509;28;20436;-69
2024/02/15 09:54:46;;;;;;;3.33;1.50;;;26.80;27.60;;;;;;5073345;28;20463;-69
2024/02/15 09:57:13;;;;;;;10.30;2.00;;;27.20;26.70;;;;;;5073747;28;20937;-69
2024/02/15 09:59:41;;;;;;;6.80;1.57;;;27.50;25.60;;;;;;5074059;28;20482;-69
2024/02/15 10:02:10;;;;;;;4.57;1.33;;;27.60;25.10;;;;;;5073887;28;20464;-69
2024/02/15 10:04:41;;;;;;;2.90;1.20;;;27.80;24.60;;;;;;5073630;28;20443;-69
2024/02/15 10:07:09;;;;;;;2.93;1.00;;;28.00;24.50;;;;;;5073542;28;20821;-69
2024/02/15 10:09:37;;;;;;;3.83;1.10;;;28.10;23.00;;;;;;5071491;28;20523;-69
2024/02/15 10:12:07;;;;;;;3.20;1.20;;;28.10;23.60;;;;;;5073466;28;20436;-69
2024/02/15 10:14:34;;;;;;;4.80;1.70;;;28.20;23.80;;;;;;5073571;28;20601;-69
2024/02/15 10:17:09;;;;;;;2.90;1.10;;;28.40;23.80;;;;;;5073404;28;21006;-69
2024/02/15 10:19:36;;;;;;;2.30;1.00;;;28.60;23.20;;;;;;5073803;28;20420;-69
2024/02/15 10:22:09;;;;;;;5.20;1.67;;;28.90;23.30;;;;;;5073449;28;20906;-69
2024/02/15 10:24:42;;;;;;;5.40;1.40;;;29.20;22.80;;;;;;5073338;28;20944;-69
2024/02/15 10:27:11;;;;;;;4.27;1.33;;;29.40;22.50;;;;;;5073683;28;20499;-69
2024/02/15 10:29:39;;;;;;;3.93;1.67;;;29.50;21.70;;;;;;5073221;28;20515;-69
2024/02/15 10:32:10;;;;;;;4.23;1.87;;;29.60;22.20;;;;;;5073373;28;20535;-69
2024/02/15 10:34:45;;;;;;;4.13;2.00;;;29.80;22.80;;;;;;5073169;28;20424;-69
2024/02/15 10:37:16;;;;;;;4.70;1.63;;;30.10;21.60;;;;;;5073314;28;20430;-69
2024/02/15 10:39:46;;;;;;;2.70;1.37;;;30.20;22.10;;;;;;5073528;28;20473;-69
2024/02/15 10:42:15;;;;;;;4.60;1.57;;;30.30;21.50;;;;;;5073160;28;20517;-69
2024/02/15 10:44:45;;;;;;;4.40;1.30;;;30.40;21.90;;;;;;5073630;28;20778;-69
2024/02/15 10:47:12;;;;;;;5.33;1.30;;;30.50;21.70;;;;;;5073548;28;20493;-69
2024/02/15 10:49:39;;;;;;;5.47;1.37;;;30.60;21.40;;;;;;5072983;28;20490;-69
2024/02/15 10:52:09;;;;;;;3.93;1.70;;;30.70;20.50;;;;;;5073316;28;20432;-69
2024/02/15 10:54:42;;;;;;;2.80;1.13;;;30.50;19.90;;;;;;5073227;28;20467;-69
2024/02/15 10:57:12;;;;;;;5.37;1.50;;;30.40;20.60;;;;;;5073478;28;20459;-69
2024/02/15 10:59:45;;;;;;;2.40;1.20;;;30.40;21.00;;;;;;5073723;28;20588;-69
2024/02/15 11:02:29;;;;;;;4.77;1.53;;;30.50;20.70;;;;;;5073496;28;20444;-69
2024/02/15 11:05:03;;;;;;;2.70;1.47;;;30.60;21.00;;;;;;5073691;28;20420;-69
2024/02/15 11:07:31;;;;;;;3.70;1.40;;;30.70;20.80;;;;;;5077756;28;20458;-69
2024/02/15 11:10:00;;;;;;;2.80;0.90;;;30.70;21.00;;;;;;5077251;28;20428;-69
2024/02/15 11:12:27;;;;;;;7.13;1.50;;;30.60;20.80;;;;;;5076772;28;20435;-69
2024/02/15 11:14:55;;;;;;;2.70;1.40;;;30.40;21.00;;;;;;5077210;28;20483;-69
2024/02/15 11:17:48;;;;;;;2.23;0.97;;;30.20;20.70;;;;;;5076883;28;20523;-69
2024/02/15 11:20:48;;;;;;;2.50;1.20;;;30.00;21.40;;;;;;5076734;28;20416;-69
2024/02/15 11:23:28;;;;;;;3.13;1.43;;;29.60;21.10;;;;;;5077296;28;20437;-69
2024/02/15 11:25:59;;;;;;;2.90;1.03;;;29.10;21.60;;;;;;5076723;28;20438;-69
2024/02/15 11:28:50;;;;;;;2.33;1.00;;;28.70;22.00;;;;;;5076522;28;20419;-69
2024/02/15 11:31:50;;;;;;;2.27;1.10;;;28.50;22.00;;;;;;5076999;28;20452;-69
2024/02/15 11:34:48;;;;;;;2.00;0.90;;;28.50;22.30;;;;;;5076820;28;20489;-69
2024/02/15 11:37:53;;;;;;;1.93;0.70;;;28.70;21.50;;;;;;5076737;28;20471;-69
2024/02/15 11:40:23;;;;;;;2.00;0.80;;;28.10;21.50;;;;;;5076433;28;20983;-69
2024/02/15 11:42:54;;;;;;;4.67;0.90;;;27.40;21.90;;;;;;5076715;28;20471;-69
2024/02/15 11:45:21;;;;;;;2.60;0.80;;;26.90;22.40;;;;;;5076222;28;20479;-69
2024/02/15 11:47:50;;;;;;;2.30;0.87;;;26.60;23.20;;;;;;5076485;28;20515;-69
2024/02/15 11:50:18;;;;;;;2.53;1.00;;;26.50;23.20;;;;;;5076158;28;20435;-69
2024/02/15 11:52:48;;;;;;;2.20;0.73;;;26.40;23.90;;;;;;5076383;28;20431;-69
2024/02/15 11:55:19;;;;;;;2.20;0.90;;;26.70;23.80;;;;;;5076312;28;20509;-69
2024/02/15 11:58:05;;;;;;;2.00;0.80;;;27.20;22.90;;;;;;5076334;28;20424;-69
2024/02/15 12:19:50;;;;;;;1.90;0.70;;;25.80;23.40;;;;;;5075725;28;20401;-69
2024/02/15 12:22:20;;;;;;;2.57;0.90;;;25.40;23.50;;;;;;5075633;28;20438;-69
2024/02/15 12:24:54;;;;;;;2.20;0.93;;;24.90;23.60;;;;;;5075902;28;20482;-69
2024/02/15 12:27:22;;;;;;;2.10;0.80;;;24.60;24.10;;;;;;5075962;28;20423;-68
2024/02/15 12:29:55;;;;;;;5.20;0.90;;;24.40;25.10;;;;;;5075809;28;20515;-68
2024/02/15 12:32:26;;;;;;;2.90;0.90;;;24.10;25.60;;;;;;5075702;28;20516;-68
2024/02/15 12:34:54;;;;;;;2.07;0.70;;;23.90;26.10;;;;;;5075753;28;20547;-68
2024/02/15 12:37:21;;;;;;;3.30;1.10;;;23.90;26.80;;;;;;5075350;28;20468;-69
2024/02/15 12:39:49;;;;;;;2.20;0.83;;;23.90;26.70;;;;;;5075633;28;20432;-68
2024/02/15 12:42:17;;;;;;;2.30;0.70;;;23.80;26.90;;;;;;5075553;28;20551;-69
2024/02/15 12:44:46;;;;;;;2.30;0.80;;;23.80;27.30;;;;;;5075444;28;20455;-69
2024/02/15 12:47:21;;;;;;;2.40;1.00;;;23.90;27.30;;;;;;5075037;28;20440;-69
2024/02/15 12:49:50;;;;;;;2.10;0.80;;;24.10;27.10;;;;;;5075500;28;20515;-69
2024/02/15 12:52:37;;;;;;;2.37;0.80;;;23.90;27.10;;;;;;5075016;28;20930;-69
2024/02/15 12:55:09;;;;;;;3.40;0.90;;;23.70;27.40;;;;;;5075331;28;20565;-69
2024/02/15 12:57:36;;;;;;;2.20;0.80;;;23.50;27.50;;;;;;5075414;28;20519;-69
2024/02/15 13:00:10;;;;;;;2.10;0.70;;;23.50;27.90;;;;;;5075398;28;20523;-69
2024/02/15 13:02:39;;;;;;;2.50;0.93;;;23.40;28.10;;;;;;5075250;28;20431;-69
2024/02/15 13:05:07;;;;;;;3.07;0.80;;;23.40;28.20;;;;;;5075168;28;20788;-69
2024/02/15 13:07:34;;;;;;;3.70;0.90;;;23.40;28.10;;;;;;5075055;28;20428;-69
2024/02/15 13:10:01;;;;;;;2.00;0.70;;;23.40;28.50;;;;;;5074682;28;20436;-69
2024/02/15 13:12:29;;;;;;;2.67;0.77;;;23.60;28.70;;;;;;5074612;28;20436;-69
2024/02/15 13:14:56;;;;;;;3.07;0.83;;;24.00;28.60;;;;;;5074540;28;20505;-69
2024/02/15 13:17:23;;;;;;;2.47;0.80;;;24.50;27.80;;;;;;5074906;28;20523;-69
2024/02/15 13:19:52;;;;;;;2.00;0.70;;;24.90;27.50;;;;;;5074906;28;20477;-69
2024/02/15 13:22:19;;;;;;;1.90;0.60;;;25.20;26.40;;;;;;5074669;28;20444;-69
2024/02/15 13:24:46;;;;;;;2.17;0.80;;;25.50;26.90;;;;;;5074768;28;20806;-69
2024/02/15 13:27:13;;;;;;;1.80;0.60;;;25.70;26.00;;;;;;5074805;28;20524;-69
2024/02/15 13:29:41;;;;;;;3.13;1.03;;;25.70;25.90;;;;;;5074479;28;20464;-69
2024/02/15 13:32:12;;;;;;;2.27;0.80;;;25.80;25.90;;;;;;5074313;28;20930;-69